sensor_id;sensor_type;location;lat;lon;timestamp;P1;durP1;ratioP1;P2;durP2;ratioP2
3278;SDS011;1651;50.940;6.888;2023-04-01T00:00:32;1.50;;;0.70;;
3278;SDS011;1651;50.940;6.888;2023-04-01T00:02:58;1.85;;;0.80;;
3278;SDS011;1651;50.940;6.888;2023-04-01T00:05:25;1.40;;;0.70;;
3278;SDS011;1651;50.940;6.888;2023-04-01T00:07:51;1.87;;;0.70;;
3278;SDS011;1651;50.940;6.888;2023-04-01T00:10:17;1.98;;;0.65;;
3278;SDS011;1651;50.940;6.888;2023-04-01T00:12:49;0.80;;;0.70;;
3278;SDS011;1651;50.940;6.888;2023-04-01T00:15:16;2.03;;;0.80;;
3278;SDS011;1651;50.940;6.888;2023-04-01T00:17:48;1.30;;;0.73;;
3278;SDS011;1651;50.940;6.888;2023-04-01T00:20:15;1.40;;;0.90;;
3278;SDS011;1651;50.940;6.888;2023-04-01T00:22:41;0.87;;;0.63;;
3278;SDS011;1651;50.940;6.888;2023-04-01T00:25:07;1.47;;;0.70;;
3278;SDS011;1651;50.940;6.888;2023-04-01T00:27:34;1.83;;;0.80;;
3278;SDS011;1651;50.940;6.888;2023-04-01T00:30:00;2.33;;;0.80;;
3278;SDS011;1651;50.940;6.888;2023-04-01T00:32:26;1.00;;;0.63;;
3278;SDS011;1651;50.940;6.888;2023-04-01T00:34:53;1.87;;;0.80;;
3278;SDS011;1651;50.940;6.888;2023-04-01T00:37:20;1.00;;;0.60;;
3278;SDS011;1651;50.940;6.888;2023-04-01T00:39:46;1.30;;;0.73;;
3278;SDS011;1651;50.940;6.888;2023-04-01T00:42:12;0.80;;;0.60;;
3278;SDS011;1651;50.940;6.888;2023-04-01T00:44:38;4.70;;;1.40;;
3278;SDS011;1651;50.940;6.888;2023-04-01T00:47:05;1.80;;;0.60;;
3278;SDS011;1651;50.940;6.888;2023-04-01T00:49:50;2.40;;;0.73;;
3278;SDS011;1651;50.940;6.888;2023-04-01T00:52:29;4.43;;;1.00;;
3278;SDS011;1651;50.940;6.888;2023-04-01T00:55:18;2.10;;;0.90;;
3278;SDS011;1651;50.940;6.888;2023-04-01T00:57:50;1.30;;;0.70;;
3278;SDS011;1651;50.940;6.888;2023-04-01T01:00:29;2.80;;;0.80;;
3278;SDS011;1651;50.940;6.888;2023-04-01T01:02:58;2.80;;;0.70;;
3278;SDS011;1651;50.940;6.888;2023-04-01T01:08:24;1.60;;;0.70;;
3278;SDS011;1651;50.940;6.888;2023-04-01T01:11:20;2.03;;;0.70;;
3278;SDS011;1651;50.940;6.888;2023-04-01T01:17:06;1.13;;;0.70;;
3278;SDS011;1651;50.940;6.888;2023-04-01T01:27:22;1.30;;;0.60;;
3278;SDS011;1651;50.940;6.888;2023-04-01T01:37:37;1.00;;;0.60;;
3278;SDS011;1651;50.940;6.888;2023-04-01T01:40:06;1.67;;;1.00;;
3278;SDS011;1651;50.940;6.888;2023-04-01T01:42:33;0.80;;;0.60;;
3278;SDS011;1651;50.940;6.888;2023-04-01T01:45:01;0.80;;;0.60;;
3278;SDS011;1651;50.940;6.888;2023-04-01T01:47:27;1.67;;;0.80;;
3278;SDS011;1651;50.940;6.888;2023-04-01T01:49:56;1.00;;;0.60;;
3278;SDS011;1651;50.940;6.888;2023-04-01T01:52:26;2.70;;;0.75;;
3278;SDS011;1651;50.940;6.888;2023-04-01T01:54:56;0.90;;;0.60;;
3278;SDS011;1651;50.940;6.888;2023-04-01T01:57:30;1.10;;;1.00;;
3278;SDS011;1651;50.940;6.888;2023-04-01T02:00:07;1.85;;;0.60;;
3278;SDS011;1651;50.940;6.888;2023-04-01T02:02:45;0.70;;;0.60;;
3278;SDS011;1651;50.940;6.888;2023-04-01T02:05:14;0.70;;;0.60;;
3278;SDS011;1651;50.940;6.888;2023-04-01T02:07:42;1.40;;;0.60;;
3278;SDS011;1651;50.940;6.888;2023-04-01T02:10:10;1.73;;;0.70;;
3278;SDS011;1651;50.940;6.888;2023-04-01T02:12:38;1.13;;;0.60;;
3278;SDS011;1651;50.940;6.888;2023-04-01T02:15:06;1.30;;;0.60;;
3278;SDS011;1651;50.940;6.888;2023-04-01T02:17:33;1.52;;;0.73;;
3278;SDS011;1651;50.940;6.888;2023-04-01T02:20:01;1.80;;;0.75;;
3278;SDS011;1651;50.940;6.888;2023-04-01T02:22:32;1.05;;;0.70;;
3278;SDS011;1651;50.940;6.888;2023-04-01T02:25:01;1.55;;;0.60;;
3278;SDS011;1651;50.940;6.888;2023-04-01T02:27:28;1.80;;;0.60;;
3278;SDS011;1651;50.940;6.888;2023-04-01T02:29:54;2.35;;;0.70;;
3278;SDS011;1651;50.940;6.888;2023-04-01T02:32:21;0.85;;;0.60;;
3278;SDS011;1651;50.940;6.888;2023-04-01T02:34:47;0.80;;;0.60;;
3278;SDS011;1651;50.940;6.888;2023-04-01T02:37:14;2.35;;;0.70;;
3278;SDS011;1651;50.940;6.888;2023-04-01T02:39:40;1.50;;;0.60;;
3278;SDS011;1651;50.940;6.888;2023-04-01T02:42:07;1.10;;;0.63;;
3278;SDS011;1651;50.940;6.888;2023-04-01T02:44:33;0.80;;;0.70;;
3278;SDS011;1651;50.940;6.888;2023-04-01T02:47:00;0.95;;;0.70;;
3278;SDS011;1651;50.940;6.888;2023-04-01T02:49:26;0.70;;;0.60;;
3278;SDS011;1651;50.940;6.888;2023-04-01T02:51:53;1.70;;;0.70;;
3278;SDS011;1651;50.940;6.888;2023-04-01T02:54:19;0.85;;;0.60;;
3278;SDS011;1651;50.940;6.888;2023-04-01T02:56:45;2.35;;;0.75;;
3278;SDS011;1651;50.940;6.888;2023-04-01T02:59:11;1.97;;;0.70;;
3278;SDS011;1651;50.940;6.888;2023-04-01T03:01:37;1.75;;;0.75;;
3278;SDS011;1651;50.940;6.888;2023-04-01T03:04:03;0.70;;;0.60;;
3278;SDS011;1651;50.940;6.888;2023-04-01T03:06:30;0.70;;;0.60;;
3278;SDS011;1651;50.940;6.888;2023-04-01T03:08:56;1.08;;;0.65;;
3278;SDS011;1651;50.940;6.888;2023-04-01T03:11:22;1.00;;;0.60;;
3278;SDS011;1651;50.940;6.888;2023-04-01T03:13:48;1.00;;;0.60;;
3278;SDS011;1651;50.940;6.888;2023-04-01T03:16:14;0.80;;;0.60;;
3278;SDS011;1651;50.940;6.888;2023-04-01T03:18:40;0.70;;;0.50;;
3278;SDS011;1651;50.940;6.888;2023-04-01T03:21:16;1.00;;;0.65;;
3278;SDS011;1651;50.940;6.888;2023-04-01T03:23:43;0.80;;;0.70;;
3278;SDS011;1651;50.940;6.888;2023-04-01T03:26:09;1.40;;;0.70;;
3278;SDS011;1651;50.940;6.888;2023-04-01T03:28:35;0.90;;;0.60;;
3278;SDS011;1651;50.940;6.888;2023-04-01T03:31:02;0.80;;;0.60;;
3278;SDS011;1651;50.940;6.888;2023-04-01T03:33:28;0.70;;;0.60;;
3278;SDS011;1651;50.940;6.888;2023-04-01T03:35:54;0.70;;;0.60;;
3278;SDS011;1651;50.940;6.888;2023-04-01T03:38:20;0.90;;;0.77;;
3278;SDS011;1651;50.940;6.888;2023-04-01T03:40:46;0.80;;;0.60;;
3278;SDS011;1651;50.940;6.888;2023-04-01T03:43:12;0.90;;;0.80;;
3278;SDS011;1651;50.940;6.888;2023-04-01T03:45:48;1.50;;;0.80;;
3278;SDS011;1651;50.940;6.888;2023-04-01T03:48:14;1.00;;;0.70;;
3278;SDS011;1651;50.940;6.888;2023-04-01T03:50:40;1.08;;;0.60;;
3278;SDS011;1651;50.940;6.888;2023-04-01T03:53:06;0.93;;;0.70;;
3278;SDS011;1651;50.940;6.888;2023-04-01T03:55:33;1.17;;;0.60;;
3278;SDS011;1651;50.940;6.888;2023-04-01T03:57:59;1.20;;;0.60;;
3278;SDS011;1651;50.940;6.888;2023-04-01T04:00:26;0.80;;;0.60;;
3278;SDS011;1651;50.940;6.888;2023-04-01T04:02:52;0.70;;;0.60;;
3278;SDS011;1651;50.940;6.888;2023-04-01T04:05:20;1.10;;;0.70;;
3278;SDS011;1651;50.940;6.888;2023-04-01T04:07:46;0.80;;;0.60;;
3278;SDS011;1651;50.940;6.888;2023-04-01T04:10:13;0.80;;;0.70;;
3278;SDS011;1651;50.940;6.888;2023-04-01T04:12:39;3.65;;;0.70;;
3278;SDS011;1651;50.940;6.888;2023-04-01T04:15:06;0.90;;;0.60;;
3278;SDS011;1651;50.940;6.888;2023-04-01T04:17:32;5.40;;;2.53;;
3278;SDS011;1651;50.940;6.888;2023-04-01T04:19:58;0.80;;;0.60;;
3278;SDS011;1651;50.940;6.888;2023-04-01T04:22:24;6.15;;;0.95;;
3278;SDS011;1651;50.940;6.888;2023-04-01T04:24:50;0.90;;;0.70;;
3278;SDS011;1651;50.940;6.888;2023-04-01T04:27:16;0.80;;;0.60;;
3278;SDS011;1651;50.940;6.888;2023-04-01T04:29:41;1.00;;;0.60;;
3278;SDS011;1651;50.940;6.888;2023-04-01T04:32:09;0.80;;;0.60;;
3278;SDS011;1651;50.940;6.888;2023-04-01T04:34:35;1.00;;;0.68;;
3278;SDS011;1651;50.940;6.888;2023-04-01T04:37:01;1.03;;;0.60;;
3278;SDS011;1651;50.940;6.888;2023-04-01T04:39:27;1.38;;;0.60;;
3278;SDS011;1651;50.940;6.888;2023-04-01T04:41:53;1.10;;;0.77;;
3278;SDS011;1651;50.940;6.888;2023-04-01T04:44:19;0.95;;;0.60;;
3278;SDS011;1651;50.940;6.888;2023-04-01T04:46:45;1.20;;;0.60;;
3278;SDS011;1651;50.940;6.888;2023-04-01T04:49:12;1.20;;;0.70;;
3278;SDS011;1651;50.940;6.888;2023-04-01T04:51:38;0.90;;;0.60;;
3278;SDS011;1651;50.940;6.888;2023-04-01T04:54:05;0.80;;;0.70;;
3278;SDS011;1651;50.940;6.888;2023-04-01T04:56:31;1.35;;;0.70;;
3278;SDS011;1651;50.940;6.888;2023-04-01T04:58:58;0.80;;;0.60;;
3278;SDS011;1651;50.940;6.888;2023-04-01T05:01:25;2.10;;;1.13;;
3278;SDS011;1651;50.940;6.888;2023-04-01T05:03:51;1.02;;;0.70;;
3278;SDS011;1651;50.940;6.888;2023-04-01T05:06:17;1.60;;;0.63;;
3278;SDS011;1651;50.940;6.888;2023-04-01T05:08:43;1.42;;;0.70;;
3278;SDS011;1651;50.940;6.888;2023-04-01T05:11:11;2.60;;;0.65;;
3278;SDS011;1651;50.940;6.888;2023-04-01T05:13:37;1.17;;;0.80;;
3278;SDS011;1651;50.940;6.888;2023-04-01T05:16:07;1.00;;;0.90;;
3278;SDS011;1651;50.940;6.888;2023-04-01T05:18:33;1.67;;;0.80;;
3278;SDS011;1651;50.940;6.888;2023-04-01T05:20:59;0.90;;;0.60;;
3278;SDS011;1651;50.940;6.888;2023-04-01T05:23:25;0.90;;;0.70;;
3278;SDS011;1651;50.940;6.888;2023-04-01T05:25:51;1.03;;;0.70;;
3278;SDS011;1651;50.940;6.888;2023-04-01T05:28:18;0.80;;;0.70;;
3278;SDS011;1651;50.940;6.888;2023-04-01T05:30:44;1.00;;;0.70;;
3278;SDS011;1651;50.940;6.888;2023-04-01T05:33:11;2.50;;;0.60;;
3278;SDS011;1651;50.940;6.888;2023-04-01T05:35:37;0.80;;;0.60;;
3278;SDS011;1651;50.940;6.888;2023-04-01T05:38:04;2.40;;;0.70;;
3278;SDS011;1651;50.940;6.888;2023-04-01T05:40:30;1.08;;;0.85;;
3278;SDS011;1651;50.940;6.888;2023-04-01T05:42:56;0.90;;;0.70;;
3278;SDS011;1651;50.940;6.888;2023-04-01T05:45:23;2.40;;;0.80;;
3278;SDS011;1651;50.940;6.888;2023-04-01T05:47:49;1.25;;;1.08;;
3278;SDS011;1651;50.940;6.888;2023-04-01T05:50:15;1.93;;;0.90;;
3278;SDS011;1651;50.940;6.888;2023-04-01T05:52:42;1.35;;;0.80;;
3278;SDS011;1651;50.940;6.888;2023-04-01T05:55:09;0.85;;;0.70;;
3278;SDS011;1651;50.940;6.888;2023-04-01T05:57:35;2.22;;;1.85;;
3278;SDS011;1651;50.940;6.888;2023-04-01T06:00:03;2.33;;;0.80;;
3278;SDS011;1651;50.940;6.888;2023-04-01T06:02:30;2.92;;;0.98;;
3278;SDS011;1651;50.940;6.888;2023-04-01T06:05:19;1.35;;;0.80;;
3278;SDS011;1651;50.940;6.888;2023-04-01T06:07:43;1.88;;;0.95;;
3278;SDS011;1651;50.940;6.888;2023-04-01T06:10:16;1.00;;;0.82;;
3278;SDS011;1651;50.940;6.888;2023-04-01T06:12:57;1.67;;;0.80;;
3278;SDS011;1651;50.940;6.888;2023-04-01T06:28:18;0.98;;;0.88;;
3278;SDS011;1651;50.940;6.888;2023-04-01T06:31:02;1.90;;;1.10;;
3278;SDS011;1651;50.940;6.888;2023-04-01T06:48:57;1.20;;;1.08;;
3278;SDS011;1651;50.940;6.888;2023-04-01T06:51:36;2.67;;;1.25;;
3278;SDS011;1651;50.940;6.888;2023-04-01T06:54:10;3.65;;;1.20;;
3278;SDS011;1651;50.940;6.888;2023-04-01T06:56:38;2.88;;;1.30;;
3278;SDS011;1651;50.940;6.888;2023-04-01T07:01:40;1.58;;;1.17;;
3278;SDS011;1651;50.940;6.888;2023-04-01T07:06:47;2.03;;;1.42;;
3278;SDS011;1651;50.940;6.888;2023-04-01T07:09:16;2.38;;;1.25;;
3278;SDS011;1651;50.940;6.888;2023-04-01T07:11:49;1.50;;;1.38;;
3278;SDS011;1651;50.940;6.888;2023-04-01T07:14:44;2.45;;;1.60;;
3278;SDS011;1651;50.940;6.888;2023-04-01T07:17:15;1.70;;;1.20;;
3278;SDS011;1651;50.940;6.888;2023-04-01T07:19:44;1.45;;;1.20;;
3278;SDS011;1651;50.940;6.888;2023-04-01T07:22:28;3.95;;;1.42;;
3278;SDS011;1651;50.940;6.888;2023-04-01T07:24:55;2.55;;;1.23;;
3278;SDS011;1651;50.940;6.888;2023-04-01T07:27:23;4.70;;;1.30;;
3278;SDS011;1651;50.940;6.888;2023-04-01T07:29:49;1.73;;;1.42;;
3278;SDS011;1651;50.940;6.888;2023-04-01T07:34:55;2.23;;;1.40;;
3278;SDS011;1651;50.940;6.888;2023-04-01T07:37:28;1.88;;;1.70;;
3278;SDS011;1651;50.940;6.888;2023-04-01T07:47:51;1.70;;;1.30;;
3278;SDS011;1651;50.940;6.888;2023-04-01T07:52:57;4.30;;;1.30;;
3278;SDS011;1651;50.940;6.888;2023-04-01T07:55:25;4.20;;;1.23;;
3278;SDS011;1651;50.940;6.888;2023-04-01T07:58:00;1.30;;;1.20;;
3278;SDS011;1651;50.940;6.888;2023-04-01T08:00:33;1.23;;;1.13;;
3278;SDS011;1651;50.940;6.888;2023-04-01T08:05:44;1.20;;;1.05;;
3278;SDS011;1651;50.940;6.888;2023-04-01T08:11:07;1.88;;;1.33;;
3278;SDS011;1651;50.940;6.888;2023-04-01T08:13:42;2.40;;;1.63;;
3278;SDS011;1651;50.940;6.888;2023-04-01T08:21:13;1.10;;;1.00;;
3278;SDS011;1651;50.940;6.888;2023-04-01T08:23:41;1.30;;;1.20;;
3278;SDS011;1651;50.940;6.888;2023-04-01T08:28:44;2.28;;;1.05;;
3278;SDS011;1651;50.940;6.888;2023-04-01T08:31:16;1.52;;;0.90;;
3278;SDS011;1651;50.940;6.888;2023-04-01T08:33:43;3.03;;;1.10;;
3278;SDS011;1651;50.940;6.888;2023-04-01T08:38:43;2.25;;;1.00;;
3278;SDS011;1651;50.940;6.888;2023-04-01T08:44:04;1.00;;;0.80;;
3278;SDS011;1651;50.940;6.888;2023-04-01T08:46:52;1.00;;;0.85;;
3278;SDS011;1651;50.940;6.888;2023-04-01T09:04:42;1.63;;;0.70;;
3278;SDS011;1651;50.940;6.888;2023-04-01T09:22:30;1.10;;;0.95;;
3278;SDS011;1651;50.940;6.888;2023-04-01T09:35:39;1.43;;;1.13;;
3278;SDS011;1651;50.940;6.888;2023-04-01T09:38:21;1.17;;;0.80;;
3278;SDS011;1651;50.940;6.888;2023-04-01T09:43:26;2.23;;;1.60;;
3278;SDS011;1651;50.940;6.888;2023-04-01T09:51:39;1.30;;;1.10;;
3278;SDS011;1651;50.940;6.888;2023-04-01T10:05:38;1.55;;;1.30;;
3278;SDS011;1651;50.940;6.888;2023-04-01T10:12:59;2.27;;;1.30;;
3278;SDS011;1651;50.940;6.888;2023-04-01T10:23:46;1.57;;;1.20;;
3278;SDS011;1651;50.940;6.888;2023-04-01T10:26:28;1.23;;;1.10;;
3278;SDS011;1651;50.940;6.888;2023-04-01T10:31:43;1.93;;;1.40;;
3278;SDS011;1651;50.940;6.888;2023-04-01T10:36:47;1.60;;;1.30;;
3278;SDS011;1651;50.940;6.888;2023-04-01T10:47:19;2.30;;;1.57;;
3278;SDS011;1651;50.940;6.888;2023-04-01T10:52:41;1.50;;;1.20;;
3278;SDS011;1651;50.940;6.888;2023-04-01T10:55:31;1.50;;;1.40;;
3278;SDS011;1651;50.940;6.888;2023-04-01T10:58:13;1.53;;;1.40;;
3278;SDS011;1651;50.940;6.888;2023-04-01T11:27:08;1.43;;;1.23;;
3278;SDS011;1651;50.940;6.888;2023-04-01T11:32:25;2.00;;;1.20;;
3278;SDS011;1651;50.940;6.888;2023-04-01T11:37:31;6.03;;;2.60;;
3278;SDS011;1651;50.940;6.888;2023-04-01T11:42:52;1.40;;;1.17;;
3278;SDS011;1651;50.940;6.888;2023-04-01T11:45:28;1.40;;;1.20;;
3278;SDS011;1651;50.940;6.888;2023-04-01T11:51:04;1.50;;;1.10;;
3278;SDS011;1651;50.940;6.888;2023-04-01T11:53:54;1.70;;;1.37;;
3278;SDS011;1651;50.940;6.888;2023-04-01T11:56:33;1.30;;;1.10;;
3278;SDS011;1651;50.940;6.888;2023-04-01T12:06:41;1.23;;;1.13;;
3278;SDS011;1651;50.940;6.888;2023-04-01T12:11:55;1.40;;;1.30;;
3278;SDS011;1651;50.940;6.888;2023-04-01T12:16:55;1.30;;;1.17;;
3278;SDS011;1651;50.940;6.888;2023-04-01T12:27:14;1.13;;;0.90;;
3278;SDS011;1651;50.940;6.888;2023-04-01T12:51:13;1.33;;;0.90;;
3278;SDS011;1651;50.940;6.888;2023-04-01T12:55:44;1.73;;;1.10;;
3278;SDS011;1651;50.940;6.888;2023-04-01T13:01:08;1.30;;;1.20;;
3278;SDS011;1651;50.940;6.888;2023-04-01T13:14:30;1.37;;;1.20;;
3278;SDS011;1651;50.940;6.888;2023-04-01T13:22:24;1.60;;;1.50;;
3278;SDS011;1651;50.940;6.888;2023-04-01T13:30:07;1.43;;;1.30;;
3278;SDS011;1651;50.940;6.888;2023-04-01T13:56:28;2.20;;;2.00;;
3278;SDS011;1651;50.940;6.888;2023-04-01T13:58:53;2.27;;;2.07;;
3278;SDS011;1651;50.940;6.888;2023-04-01T14:09:51;2.30;;;1.90;;
3278;SDS011;1651;50.940;6.888;2023-04-01T14:12:25;2.30;;;1.93;;
3278;SDS011;1651;50.940;6.888;2023-04-01T14:14:56;2.47;;;2.27;;
3278;SDS011;1651;50.940;6.888;2023-04-01T14:27:45;2.20;;;2.00;;
3278;SDS011;1651;50.940;6.888;2023-04-01T14:32:46;2.43;;;2.00;;
3278;SDS011;1651;50.940;6.888;2023-04-01T14:35:22;2.30;;;2.10;;
3278;SDS011;1651;50.940;6.888;2023-04-01T14:40:53;3.77;;;2.20;;
3278;SDS011;1651;50.940;6.888;2023-04-01T14:44:09;3.33;;;2.03;;
3278;SDS011;1651;50.940;6.888;2023-04-01T14:48:38;3.27;;;2.27;;
3278;SDS011;1651;50.940;6.888;2023-04-01T14:51:57;2.70;;;1.93;;
3278;SDS011;1651;50.940;6.888;2023-04-01T14:59:04;2.30;;;1.87;;
3278;SDS011;1651;50.940;6.888;2023-04-01T15:01:37;4.77;;;2.30;;
3278;SDS011;1651;50.940;6.888;2023-04-01T15:09:26;2.50;;;2.00;;
3278;SDS011;1651;50.940;6.888;2023-04-01T15:12:02;2.10;;;1.90;;
3278;SDS011;1651;50.940;6.888;2023-04-01T15:17:05;2.50;;;2.30;;
3278;SDS011;1651;50.940;6.888;2023-04-01T15:30:38;5.30;;;2.80;;
3278;SDS011;1651;50.940;6.888;2023-04-01T15:33:13;2.87;;;2.13;;
3278;SDS011;1651;50.940;6.888;2023-04-01T15:35:49;3.20;;;2.60;;
3278;SDS011;1651;50.940;6.888;2023-04-01T15:56:53;2.73;;;2.53;;
3278;SDS011;1651;50.940;6.888;2023-04-01T16:04:58;4.40;;;3.17;;
3278;SDS011;1651;50.940;6.888;2023-04-01T16:15:21;3.00;;;2.70;;
3278;SDS011;1651;50.940;6.888;2023-04-01T16:18:00;3.40;;;3.10;;
3278;SDS011;1651;50.940;6.888;2023-04-01T16:23:27;3.50;;;2.90;;
3278;SDS011;1651;50.940;6.888;2023-04-01T16:26:05;3.50;;;2.53;;
3278;SDS011;1651;50.940;6.888;2023-04-01T16:28:36;3.40;;;2.80;;
3278;SDS011;1651;50.940;6.888;2023-04-01T16:36:13;3.60;;;3.10;;
3278;SDS011;1651;50.940;6.888;2023-04-01T16:44:30;3.37;;;2.60;;
3278;SDS011;1651;50.940;6.888;2023-04-01T16:46:57;3.33;;;2.87;;
3278;SDS011;1651;50.940;6.888;2023-04-01T16:49:29;2.70;;;2.50;;
3278;SDS011;1651;50.940;6.888;2023-04-01T16:52:04;3.53;;;2.67;;
3278;SDS011;1651;50.940;6.888;2023-04-01T16:54:40;3.27;;;2.57;;
3278;SDS011;1651;50.940;6.888;2023-04-01T16:59:36;3.50;;;2.60;;
3278;SDS011;1651;50.940;6.888;2023-04-01T17:02:13;3.13;;;2.70;;
3278;SDS011;1651;50.940;6.888;2023-04-01T17:04:45;2.63;;;2.43;;
3278;SDS011;1651;50.940;6.888;2023-04-01T17:12:24;2.47;;;2.27;;
3278;SDS011;1651;50.940;6.888;2023-04-01T17:15:05;2.50;;;2.30;;
3278;SDS011;1651;50.940;6.888;2023-04-01T17:28:20;2.40;;;2.20;;
3278;SDS011;1651;50.940;6.888;2023-04-01T17:46:20;3.30;;;2.47;;
3278;SDS011;1651;50.940;6.888;2023-04-01T17:48:45;3.10;;;2.43;;
3278;SDS011;1651;50.940;6.888;2023-04-01T17:51:37;3.65;;;2.95;;
3278;SDS011;1651;50.940;6.888;2023-04-01T17:59:43;3.72;;;3.40;;
3278;SDS011;1651;50.940;6.888;2023-04-01T18:05:17;3.40;;;2.90;;
3278;SDS011;1651;50.940;6.888;2023-04-01T18:10:29;4.38;;;3.58;;
3278;SDS011;1651;50.940;6.888;2023-04-01T18:25:41;6.38;;;3.75;;
3278;SDS011;1651;50.940;6.888;2023-04-01T18:31:08;4.28;;;3.75;;
3278;SDS011;1651;50.940;6.888;2023-04-01T18:33:45;6.60;;;3.33;;
3278;SDS011;1651;50.940;6.888;2023-04-01T18:39:02;4.60;;;3.90;;
3278;SDS011;1651;50.940;6.888;2023-04-01T18:41:52;3.50;;;3.20;;
3278;SDS011;1651;50.940;6.888;2023-04-01T18:47:13;5.10;;;4.28;;
3278;SDS011;1651;50.940;6.888;2023-04-01T18:52:11;4.07;;;3.58;;
3278;SDS011;1651;50.940;6.888;2023-04-01T19:03:00;5.03;;;3.85;;
3278;SDS011;1651;50.940;6.888;2023-04-01T19:05:39;4.03;;;3.63;;
3278;SDS011;1651;50.940;6.888;2023-04-01T19:08:14;4.18;;;3.78;;
3278;SDS011;1651;50.940;6.888;2023-04-01T19:16:31;4.68;;;4.28;;
3278;SDS011;1651;50.940;6.888;2023-04-01T19:45:07;5.50;;;4.77;;
3278;SDS011;1651;50.940;6.888;2023-04-01T19:53:00;4.43;;;4.03;;
3278;SDS011;1651;50.940;6.888;2023-04-01T20:00:34;5.18;;;4.68;;
3278;SDS011;1651;50.940;6.888;2023-04-01T20:05:35;5.18;;;4.40;;
3278;SDS011;1651;50.940;6.888;2023-04-01T20:08:09;7.50;;;5.30;;
3278;SDS011;1651;50.940;6.888;2023-04-01T20:10:46;6.00;;;5.40;;
3278;SDS011;1651;50.940;6.888;2023-04-01T20:13:36;6.50;;;4.80;;
3278;SDS011;1651;50.940;6.888;2023-04-01T20:16:07;6.47;;;5.65;;
3278;SDS011;1651;50.940;6.888;2023-04-01T20:21:31;7.10;;;5.70;;
3278;SDS011;1651;50.940;6.888;2023-04-01T20:24:00;8.95;;;6.18;;
3278;SDS011;1651;50.940;6.888;2023-04-01T20:26:32;7.10;;;5.18;;
3278;SDS011;1651;50.940;6.888;2023-04-01T20:34:50;5.45;;;4.57;;
3278;SDS011;1651;50.940;6.888;2023-04-01T20:45:14;7.80;;;5.57;;
3278;SDS011;1651;50.940;6.888;2023-04-01T20:50:19;8.63;;;4.75;;
3278;SDS011;1651;50.940;6.888;2023-04-01T20:53:04;6.22;;;5.03;;
3278;SDS011;1651;50.940;6.888;2023-04-01T21:11:18;5.18;;;3.97;;
3278;SDS011;1651;50.940;6.888;2023-04-01T21:19:02;4.60;;;3.20;;
3278;SDS011;1651;50.940;6.888;2023-04-01T21:27:08;3.97;;;3.28;;
3278;SDS011;1651;50.940;6.888;2023-04-01T21:29:44;4.00;;;3.42;;
3278;SDS011;1651;50.940;6.888;2023-04-01T21:37:36;2.95;;;2.40;;
3278;SDS011;1651;50.940;6.888;2023-04-01T21:56:12;2.87;;;2.57;;
3278;SDS011;1651;50.940;6.888;2023-04-01T21:58:59;3.20;;;2.90;;
3278;SDS011;1651;50.940;6.888;2023-04-01T22:04:22;3.85;;;2.97;;
3278;SDS011;1651;50.940;6.888;2023-04-01T22:06:55;3.28;;;2.97;;
3278;SDS011;1651;50.940;6.888;2023-04-01T22:15:04;7.20;;;3.45;;
3278;SDS011;1651;50.940;6.888;2023-04-01T22:17:57;3.55;;;3.25;;
3278;SDS011;1651;50.940;6.888;2023-04-01T22:23:19;3.15;;;2.67;;
3278;SDS011;1651;50.940;6.888;2023-04-01T22:29:31;3.80;;;3.40;;
3278;SDS011;1651;50.940;6.888;2023-04-01T22:44:06;4.90;;;3.35;;
3278;SDS011;1651;50.940;6.888;2023-04-01T22:52:40;5.07;;;4.07;;
3278;SDS011;1651;50.940;6.888;2023-04-01T22:55:21;5.65;;;4.70;;
3278;SDS011;1651;50.940;6.888;2023-04-01T22:57:50;5.78;;;4.88;;
3278;SDS011;1651;50.940;6.888;2023-04-01T23:00:19;7.00;;;6.28;;
3278;SDS011;1651;50.940;6.888;2023-04-01T23:02:47;7.60;;;5.90;;
3278;SDS011;1651;50.940;6.888;2023-04-01T23:05:16;7.10;;;6.13;;
3278;SDS011;1651;50.940;6.888;2023-04-01T23:10:22;9.48;;;5.82;;
3278;SDS011;1651;50.940;6.888;2023-04-01T23:12:51;7.68;;;5.75;;
3278;SDS011;1651;50.940;6.888;2023-04-01T23:19:06;6.07;;;5.47;;
3278;SDS011;1651;50.940;6.888;2023-04-01T23:36:10;6.72;;;6.03;;
3278;SDS011;1651;50.940;6.888;2023-04-01T23:38:51;7.60;;;6.10;;
3278;SDS011;1651;50.940;6.888;2023-04-01T23:41:25;8.45;;;6.78;;
3278;SDS011;1651;50.940;6.888;2023-04-01T23:44:13;10.38;;;6.55;;
3278;SDS011;1651;50.940;6.888;2023-04-01T23:46:42;8.15;;;6.50;;
3278;SDS011;1651;50.940;6.888;2023-04-01T23:49:12;8.88;;;6.70;;
3278;SDS011;1651;50.940;6.888;2023-04-01T23:51:52;8.02;;;6.18;;
3278;SDS011;1651;50.940;6.888;2023-04-01T23:54:34;8.63;;;7.10;;
3278;SDS011;1651;50.940;6.888;2023-04-01T23:57:09;9.85;;;7.55;;
3278;SDS011;1651;50.940;6.888;2023-04-01T23:59:36;10.18;;;6.68;;
